Time;durP1;ratioP1;P1;durP2;ratioP2;P2;SDS_P1;SDS_P2;PMS_P1;PMS_P2;Temp;Humidity;BMP_temperature;BMP_pressure;BME280_temperature;BME280_humidity;BME280_pressure;Samples;Min_cycle;Max_cycle;Signal;HPM_P1;HPM_P2
2023/07/20 00:01:23;;;;;;;5.57;2.33;;;;;;;;;;4926268;29;20035;-81
2023/07/20 00:03:54;;;;;;;6.32;2.50;;;;;;;;;;4932011;29;20043;-81
2023/07/20 00:06:24;;;;;;;5.43;2.22;;;;;;;;;;4924559;29;20036;-81
2023/07/20 00:08:50;;;;;;;7.60;2.30;;;;;;;;;;4913768;29;20135;-81
2023/07/20 00:11:16;;;;;;;5.53;2.22;;;;;;;;;;4914721;29;20039;-81
2023/07/20 00:13:43;;;;;;;11.20;3.03;;;;;;;;;;4929407;29;20082;-81
2023/07/20 00:16:08;;;;;;;8.25;2.58;;;;;;;;;;4921010;29;20040;-81
2023/07/20 00:18:35;;;;;;;6.90;2.70;;;;;;;;;;4919852;29;20036;-81
2023/07/20 00:21:01;;;;;;;9.75;3.28;;;;;;;;;;4920115;29;20810;-81
2023/07/20 00:23:27;;;;;;;8.30;2.80;;;;;;;;;;4918828;29;20099;-81
2023/07/20 00:25:53;;;;;;;8.18;2.15;;;;;;;;;;4935063;29;20499;-81
2023/07/20 00:28:19;;;;;;;5.78;2.45;;;;;;;;;;4914017;29;20123;-81
2023/07/20 00:30:45;;;;;;;5.25;2.08;;;;;;;;;;4919207;29;20144;-81
2023/07/20 00:33:12;;;;;;;5.85;2.53;;;;;;;;;;4915427;29;20498;-81
2023/07/20 00:35:38;;;;;;;6.03;2.33;;;;;;;;;;4925138;29;20782;-79
2023/07/20 00:38:05;;;;;;;6.80;2.60;;;;;;;;;;4925883;29;20071;-81
2023/07/20 00:40:41;;;;;;;5.95;2.05;;;;;;;;;;4921217;29;20036;-80
2023/07/20 00:43:07;;;;;;;7.05;2.65;;;;;;;;;;4913925;29;20716;-81
2023/07/20 00:45:34;;;;;;;7.45;2.58;;;;;;;;;;4921028;29;20378;-80
2023/07/20 00:48:01;;;;;;;8.07;2.50;;;;;;;;;;4923831;29;20040;-81
2023/07/20 00:50:28;;;;;;;6.00;2.55;;;;;;;;;;4918181;29;20500;-81
2023/07/20 00:52:55;;;;;;;6.43;2.22;;;;;;;;;;4919119;29;20035;-81
2023/07/20 00:55:21;;;;;;;6.68;2.25;;;;;;;;;;4926684;29;20039;-81
2023/07/20 00:57:47;;;;;;;6.72;2.42;;;;;;;;;;4913924;29;20052;-80
2023/07/20 01:00:14;;;;;;;7.70;2.78;;;;;;;;;;4915271;29;20479;-80
2023/07/20 01:02:39;;;;;;;9.18;2.40;;;;;;;;;;4914614;29;20123;-81
2023/07/20 01:05:07;;;;;;;6.22;2.08;;;;;;;;;;4913949;29;20102;-81
2023/07/20 01:07:38;;;;;;;7.13;2.40;;;;;;;;;;4924417;29;20056;-81
2023/07/20 01:10:23;;;;;;;9.43;2.53;;;;;;;;;;4907817;29;20122;-81
2023/07/20 01:12:52;;;;;;;5.15;2.33;;;;;;;;;;4915355;29;20048;-81
2023/07/20 01:15:19;;;;;;;5.95;2.45;;;;;;;;;;4913088;29;20036;-81
2023/07/20 01:17:45;;;;;;;5.53;2.28;;;;;;;;;;4926366;29;20047;-81
2023/07/20 01:20:14;;;;;;;6.40;2.85;;;;;;;;;;4913584;29;20032;-81
2023/07/20 01:22:59;;;;;;;6.10;2.80;;;;;;;;;;4927378;29;20051;-78
2023/07/20 01:25:27;;;;;;;8.77;2.38;;;;;;;;;;4913106;29;20566;-81
2023/07/20 01:28:12;;;;;;;8.43;2.72;;;;;;;;;;4917157;29;20126;-81
2023/07/20 01:30:57;;;;;;;7.80;2.95;;;;;;;;;;4923529;29;20036;-81
2023/07/20 01:33:25;;;;;;;7.85;2.83;;;;;;;;;;4918652;29;20052;-81
2023/07/20 01:35:55;;;;;;;7.63;2.55;;;;;;;;;;4927842;29;20064;-81
2023/07/20 01:38:22;;;;;;;8.57;2.65;;;;;;;;;;4927796;29;20123;-81
2023/07/20 01:40:48;;;;;;;10.07;2.80;;;;;;;;;;4920925;29;20027;-81
2023/07/20 01:43:14;;;;;;;10.15;2.75;;;;;;;;;;4922980;29;20150;-81
2023/07/20 01:45:40;;;;;;;5.72;2.47;;;;;;;;;;4920141;29;20032;-80
2023/07/20 01:48:06;;;;;;;5.80;2.50;;;;;;;;;;4921093;29;20482;-81
2023/07/20 01:50:34;;;;;;;6.38;2.40;;;;;;;;;;4934581;29;20043;-81
2023/07/20 01:53:00;;;;;;;6.13;2.60;;;;;;;;;;4930907;29;20097;-81
2023/07/20 01:55:26;;;;;;;7.90;2.30;;;;;;;;;;4921411;29;20036;-81
2023/07/20 01:57:52;;;;;;;12.80;3.08;;;;;;;;;;4916973;29;20044;-80
2023/07/20 02:00:21;;;;;;;4.55;2.35;;;;;;;;;;4918223;29;20072;-78
2023/07/20 02:02:47;;;;;;;5.28;2.10;;;;;;;;;;4923050;29;20055;-80
2023/07/20 02:05:13;;;;;;;4.60;2.20;;;;;;;;;;4914152;29;20119;-81
2023/07/20 02:07:39;;;;;;;7.38;2.85;;;;;;;;;;4933111;29;20056;-80
2023/07/20 02:10:05;;;;;;;6.35;2.45;;;;;;;;;;4924903;29;20084;-80
2023/07/20 02:12:31;;;;;;;5.88;2.72;;;;;;;;;;4936886;29;20503;-81
2023/07/20 02:14:57;;;;;;;9.02;3.10;;;;;;;;;;4923026;29;20423;-81
2023/07/20 02:17:23;;;;;;;6.63;3.15;;;;;;;;;;4931249;29;20035;-81
2023/07/20 02:19:57;;;;;;;7.20;2.58;;;;;;;;;;4917830;29;20064;-81
2023/07/20 02:22:23;;;;;;;6.90;2.80;;;;;;;;;;4927293;29;20360;-80
2023/07/20 02:24:50;;;;;;;9.13;2.95;;;;;;;;;;4921903;29;20432;-78
2023/07/20 02:27:16;;;;;;;5.68;2.40;;;;;;;;;;4916559;29;20071;-81
2023/07/20 02:29:42;;;;;;;8.13;2.75;;;;;;;;;;4920955;29;20032;-80
2023/07/20 02:32:09;;;;;;;6.90;2.80;;;;;;;;;;4919749;29;20126;-81
2023/07/20 02:34:36;;;;;;;5.53;2.50;;;;;;;;;;4930196;29;20482;-79
2023/07/20 02:37:02;;;;;;;6.47;2.55;;;;;;;;;;4937220;29;20032;-80
2023/07/20 02:39:28;;;;;;;6.22;3.10;;;;;;;;;;4934580;29;20491;-81
2023/07/20 02:41:54;;;;;;;5.60;2.55;;;;;;;;;;4907133;29;20537;-81
2023/07/20 02:44:20;;;;;;;8.20;2.83;;;;;;;;;;4924608;29;20046;-81
2023/07/20 02:46:46;;;;;;;5.72;2.45;;;;;;;;;;4934289;29;20048;-81
2023/07/20 02:49:12;;;;;;;6.72;2.85;;;;;;;;;;4930651;29;20048;-81
2023/07/20 02:51:38;;;;;;;7.78;3.00;;;;;;;;;;4922491;29;20132;-80
2023/07/20 02:54:04;;;;;;;6.95;2.53;;;;;;;;;;4931081;29;20110;-81
2023/07/20 02:56:30;;;;;;;7.53;3.03;;;;;;;;;;4919895;29;20036;-80
2023/07/20 02:58:57;;;;;;;7.97;3.15;;;;;;;;;;4905649;29;20044;-80
2023/07/20 03:01:23;;;;;;;7.78;3.20;;;;;;;;;;4919420;29;20055;-81
2023/07/20 03:03:49;;;;;;;10.25;3.13;;;;;;;;;;4916814;29;20108;-80
2023/07/20 03:06:15;;;;;;;5.78;2.65;;;;;;;;;;4929542;29;20378;-80
2023/07/20 03:08:47;;;;;;;6.95;3.22;;;;;;;;;;4915633;29;20123;-80
2023/07/20 03:11:13;;;;;;;6.45;3.10;;;;;;;;;;4920649;29;20050;-80
2023/07/20 03:13:39;;;;;;;9.07;3.28;;;;;;;;;;4918864;29;20406;-81
2023/07/20 03:16:05;;;;;;;6.53;3.03;;;;;;;;;;4919154;29;20656;-80
2023/07/20 03:18:31;;;;;;;10.27;3.40;;;;;;;;;;4923345;29;20115;-80
2023/07/20 03:20:57;;;;;;;6.68;2.65;;;;;;;;;;4915130;29;20063;-80
2023/07/20 03:23:23;;;;;;;9.40;3.30;;;;;;;;;;4914902;29;20040;-81
2023/07/20 03:25:49;;;;;;;8.13;3.08;;;;;;;;;;4915199;29;20036;-80
2023/07/20 03:28:16;;;;;;;8.90;3.05;;;;;;;;;;4921331;29;20071;-81
2023/07/20 03:30:41;;;;;;;8.57;2.90;;;;;;;;;;4939896;29;20039;-80
2023/07/20 03:33:07;;;;;;;5.97;2.38;;;;;;;;;;4922261;29;20032;-80
2023/07/20 03:35:34;;;;;;;7.15;3.03;;;;;;;;;;4924812;29;20036;-80
2023/07/20 03:38:00;;;;;;;5.75;2.50;;;;;;;;;;4915364;29;20932;-81
2023/07/20 03:40:26;;;;;;;6.40;3.17;;;;;;;;;;4918240;29;20123;-80
2023/07/20 03:42:52;;;;;;;5.60;2.80;;;;;;;;;;4927778;29;20067;-80
2023/07/20 03:45:18;;;;;;;6.80;3.38;;;;;;;;;;4914282;29;20695;-80
2023/07/20 03:47:44;;;;;;;8.88;3.35;;;;;;;;;;4924027;29;20113;-78
2023/07/20 03:50:10;;;;;;;4.82;2.40;;;;;;;;;;4921552;29;20379;-80
2023/07/20 03:52:36;;;;;;;9.88;3.08;;;;;;;;;;4914546;29;20040;-80
2023/07/20 03:55:02;;;;;;;7.88;3.13;;;;;;;;;;4914840;29;20123;-81
2023/07/20 03:57:28;;;;;;;9.23;4.35;;;;;;;;;;4925437;29;20059;-81
2023/07/20 03:59:55;;;;;;;6.40;3.05;;;;;;;;;;4925757;29;20062;-81
2023/07/20 04:02:21;;;;;;;9.98;3.17;;;;;;;;;;4930312;29;20031;-81
2023/07/20 04:04:47;;;;;;;8.00;3.00;;;;;;;;;;4914768;29;20036;-81
2023/07/20 04:07:13;;;;;;;6.70;2.75;;;;;;;;;;4930353;29;20040;-80
2023/07/20 04:09:40;;;;;;;6.38;2.30;;;;;;;;;;4922015;29;20115;-80
2023/07/20 04:12:06;;;;;;;5.50;3.00;;;;;;;;;;4914325;29;20036;-80
2023/07/20 04:14:32;;;;;;;6.60;3.03;;;;;;;;;;4918796;29;20114;-81
2023/07/20 04:17:00;;;;;;;6.35;3.10;;;;;;;;;;4923068;29;20119;-80
2023/07/20 04:19:26;;;;;;;8.07;4.55;;;;;;;;;;4916840;29;20087;-80
2023/07/20 04:21:52;;;;;;;11.52;3.78;;;;;;;;;;4927895;29;20059;-80
2023/07/20 04:24:18;;;;;;;10.98;3.47;;;;;;;;;;4931317;29;20067;-80
2023/07/20 04:26:44;;;;;;;8.80;3.72;;;;;;;;;;4919801;29;20046;-80
2023/07/20 04:29:10;;;;;;;8.77;3.67;;;;;;;;;;4919416;29;20040;-80
2023/07/20 04:31:36;;;;;;;8.43;3.45;;;;;;;;;;4921870;29;20521;-81
2023/07/20 04:34:02;;;;;;;5.43;2.88;;;;;;;;;;4917384;29;20127;-80
2023/07/20 04:36:28;;;;;;;6.15;2.83;;;;;;;;;;4916574;29;20111;-80
2023/07/20 04:38:54;;;;;;;8.95;2.88;;;;;;;;;;4925943;29;20040;-80
2023/07/20 04:41:20;;;;;;;8.40;2.50;;;;;;;;;;4926619;29;20036;-80
2023/07/20 04:43:46;;;;;;;8.32;2.90;;;;;;;;;;4921129;29;20500;-80
2023/07/20 04:46:12;;;;;;;5.70;2.95;;;;;;;;;;4922598;29;20478;-80
2023/07/20 04:48:40;;;;;;;7.20;3.33;;;;;;;;;;4923505;29;20505;-80
2023/07/20 04:51:06;;;;;;;9.20;2.80;;;;;;;;;;4926145;29;20059;-80
2023/07/20 04:53:32;;;;;;;11.63;3.42;;;;;;;;;;4919356;29;20449;-80
2023/07/20 04:55:58;;;;;;;9.10;3.22;;;;;;;;;;4920354;29;20043;-81
2023/07/20 04:58:25;;;;;;;7.97;3.70;;;;;;;;;;4912676;29;20036;-80
2023/07/20 05:00:51;;;;;;;8.85;3.00;;;;;;;;;;4918244;29;20034;-81
2023/07/20 05:03:18;;;;;;;7.07;3.33;;;;;;;;;;4926519;29;20032;-81
2023/07/20 05:05:44;;;;;;;7.97;3.05;;;;;;;;;;4913271;29;20064;-81
2023/07/20 05:08:10;;;;;;;6.68;2.50;;;;;;;;;;4918502;29;20513;-81
2023/07/20 05:10:36;;;;;;;8.15;2.88;;;;;;;;;;4931235;29;20035;-81
2023/07/20 05:13:02;;;;;;;9.48;4.18;;;;;;;;;;4928419;29;20042;-81
2023/07/20 05:15:28;;;;;;;11.07;3.65;;;;;;;;;;4915195;29;20818;-81
2023/07/20 05:17:54;;;;;;;7.32;3.00;;;;;;;;;;4935595;29;20051;-81
2023/07/20 05:20:20;;;;;;;6.90;2.58;;;;;;;;;;4918518;29;20566;-81
2023/07/20 05:22:46;;;;;;;11.57;3.72;;;;;;;;;;4938453;29;20033;-82
2023/07/20 05:25:12;;;;;;;8.80;4.32;;;;;;;;;;4923593;29;20040;-82
2023/07/20 05:27:39;;;;;;;12.63;6.05;;;;;;;;;;4929846;29;20039;-81
2023/07/20 05:30:05;;;;;;;11.68;6.15;;;;;;;;;;4933194;29;20043;-81
2023/07/20 05:32:31;;;;;;;9.25;4.70;;;;;;;;;;4921634;29;20067;-81
2023/07/20 05:34:57;;;;;;;9.32;3.97;;;;;;;;;;4926257;29;20031;-80
2023/07/20 05:37:23;;;;;;;6.13;2.83;;;;;;;;;;4923171;29;20158;-81
2023/07/20 05:39:50;;;;;;;8.43;2.70;;;;;;;;;;4919077;29;20051;-83
2023/07/20 05:42:16;;;;;;;5.55;2.67;;;;;;;;;;4917218;29;20032;-82
2023/07/20 05:44:42;;;;;;;6.68;2.75;;;;;;;;;;4940668;29;20039;-82
2023/07/20 05:47:08;;;;;;;11.13;3.35;;;;;;;;;;4934287;29;20031;-83
2023/07/20 05:49:35;;;;;;;7.00;2.83;;;;;;;;;;4931801;29;20035;-82
2023/07/20 05:52:09;;;;;;;8.93;2.83;;;;;;;;;;4942054;29;20071;-83
2023/07/20 05:54:35;;;;;;;10.98;4.00;;;;;;;;;;4942426;29;20036;-82
2023/07/20 05:57:01;;;;;;;10.65;5.65;;;;;;;;;;4923469;29;20032;-80
2023/07/20 05:59:29;;;;;;;9.75;5.70;;;;;;;;;;4925868;29;20043;-82
2023/07/20 06:01:55;;;;;;;11.55;4.85;;;;;;;;;;4932585;29;20082;-81
2023/07/20 06:04:21;;;;;;;12.38;5.43;;;;;;;;;;4931883;29;20032;-82
2023/07/20 06:06:47;;;;;;;10.90;4.80;;;;;;;;;;4916534;29;20044;-82
2023/07/20 06:09:14;;;;;;;13.43;6.47;;;;;;;;;;4921749;29;20063;-82
2023/07/20 06:11:40;;;;;;;9.63;4.85;;;;;;;;;;4916734;29;20036;-79
2023/07/20 06:14:06;;;;;;;11.02;3.60;;;;;;;;;;4917509;29;20103;-80
2023/07/20 06:16:32;;;;;;;7.18;3.55;;;;;;;;;;4918087;29;20708;-83
2023/07/20 06:18:59;;;;;;;6.25;3.60;;;;;;;;;;4918787;29;20734;-82
2023/07/20 06:21:25;;;;;;;8.13;2.97;;;;;;;;;;4923047;29;20074;-82
2023/07/20 06:23:51;;;;;;;7.85;3.03;;;;;;;;;;4937904;29;20048;-82
2023/07/20 06:26:17;;;;;;;8.38;3.17;;;;;;;;;;4932631;29;20036;-82
2023/07/20 06:28:43;;;;;;;10.48;3.30;;;;;;;;;;4938628;29;20044;-82
2023/07/20 06:31:09;;;;;;;4.70;2.63;;;;;;;;;;4933200;29;20039;-82
2023/07/20 06:33:35;;;;;;;6.97;3.25;;;;;;;;;;4899090;29;20052;-82
2023/07/20 06:36:01;;;;;;;8.43;3.15;;;;;;;;;;4919833;29;20115;-82
2023/07/20 06:38:27;;;;;;;9.48;3.35;;;;;;;;;;4915910;29;20123;-79
2023/07/20 06:40:53;;;;;;;8.02;3.88;;;;;;;;;;4922899;29;20032;-82
2023/07/20 06:43:19;;;;;;;9.00;4.07;;;;;;;;;;4939640;29;20497;-82
2023/07/20 06:45:45;;;;;;;10.05;4.07;;;;;;;;;;4927836;29;20036;-82
2023/07/20 06:48:11;;;;;;;5.22;2.90;;;;;;;;;;4924197;29;20044;-81
2023/07/20 06:50:37;;;;;;;7.32;2.70;;;;;;;;;;4921341;29;20130;-82
2023/07/20 06:53:03;;;;;;;5.65;2.90;;;;;;;;;;4921080;29;20195;-82
2023/07/20 06:55:29;;;;;;;6.00;2.65;;;;;;;;;;4917249;29;20047;-82
2023/07/20 06:57:55;;;;;;;8.77;2.72;;;;;;;;;;4918507;29;20028;-82
2023/07/20 07:00:21;;;;;;;6.15;2.63;;;;;;;;;;4922088;29;20481;-82
2023/07/20 07:02:47;;;;;;;6.05;2.58;;;;;;;;;;4925370;29;20195;-82
2023/07/20 07:05:15;;;;;;;5.70;2.67;;;;;;;;;;4924732;29;20137;-82
2023/07/20 07:07:41;;;;;;;7.57;2.95;;;;;;;;;;4931106;29;20127;-83
2023/07/20 07:10:08;;;;;;;4.93;2.92;;;;;;;;;;4925349;29;20059;-82
2023/07/20 07:12:35;;;;;;;8.13;4.43;;;;;;;;;;4929459;28;20072;-82
2023/07/20 07:15:01;;;;;;;7.47;4.03;;;;;;;;;;4929217;29;20036;-82
2023/07/20 07:17:27;;;;;;;8.57;4.32;;;;;;;;;;4916627;29;20036;-82
2023/07/20 07:19:54;;;;;;;9.48;4.43;;;;;;;;;;4918422;29;20040;-81
2023/07/20 07:22:21;;;;;;;9.30;4.03;;;;;;;;;;4915190;29;20055;-79
2023/07/20 07:24:47;;;;;;;9.02;3.83;;;;;;;;;;4918793;29;20032;-80
2023/07/20 07:27:15;;;;;;;10.63;3.33;;;;;;;;;;4937820;29;20036;-82
2023/07/20 07:29:44;;;;;;;6.80;3.40;;;;;;;;;;4919362;29;20032;-82
2023/07/20 07:32:10;;;;;;;9.27;3.58;;;;;;;;;;4919465;29;20542;-82
2023/07/20 07:34:37;;;;;;;7.55;3.03;;;;;;;;;;4936835;29;20131;-82
2023/07/20 07:37:03;;;;;;;6.65;2.97;;;;;;;;;;4918597;29;20039;-82
2023/07/20 07:39:30;;;;;;;6.35;2.95;;;;;;;;;;4920811;29;20111;-82
2023/07/20 07:41:56;;;;;;;5.35;2.92;;;;;;;;;;4929685;29;20035;-82
2023/07/20 07:44:22;;;;;;;6.30;3.00;;;;;;;;;;4925271;29;20057;-82
2023/07/20 07:46:48;;;;;;;5.07;2.90;;;;;;;;;;4917497;29;20113;-82
2023/07/20 07:49:14;;;;;;;7.30;3.85;;;;;;;;;;4919735;29;20036;-82
2023/07/20 07:51:40;;;;;;;6.53;3.40;;;;;;;;;;4898216;29;20480;-81
2023/07/20 07:54:07;;;;;;;6.75;2.30;;;;;;;;;;4914160;29;20497;-82
2023/07/20 07:56:33;;;;;;;7.35;2.72;;;;;;;;;;4936470;29;20039;-82
2023/07/20 07:58:59;;;;;;;6.93;2.70;;;;;;;;;;4919482;29;20088;-82
2023/07/20 08:01:25;;;;;;;5.03;2.80;;;;;;;;;;4924125;29;20107;-82
2023/07/20 08:03:51;;;;;;;7.38;2.75;;;;;;;;;;4932266;29;20032;-82
2023/07/20 08:06:17;;;;;;;13.07;3.72;;;;;;;;;;4925570;29;20457;-82
2023/07/20 08:08:43;;;;;;;7.65;2.80;;;;;;;;;;4918855;29;20060;-82
2023/07/20 08:11:10;;;;;;;7.75;3.35;;;;;;;;;;4914830;29;20120;-82
2023/07/20 08:13:36;;;;;;;6.82;3.17;;;;;;;;;;4928911;29;20652;-80
2023/07/20 08:16:02;;;;;;;5.97;2.83;;;;;;;;;;4919068;29;20777;-82
2023/07/20 08:18:29;;;;;;;6.70;3.08;;;;;;;;;;4927860;29;20426;-80
2023/07/20 08:20:55;;;;;;;5.25;2.67;;;;;;;;;;4924243;29;20027;-82
2023/07/20 08:23:21;;;;;;;5.78;3.13;;;;;;;;;;4924392;29;20076;-80
2023/07/20 08:25:47;;;;;;;6.57;2.72;;;;;;;;;;4914442;29;20032;-80
2023/07/20 08:28:14;;;;;;;7.75;3.38;;;;;;;;;;4934011;29;20542;-80
2023/07/20 08:30:45;;;;;;;5.88;2.40;;;;;;;;;;4913644;29;20036;-80
2023/07/20 08:33:11;;;;;;;6.78;2.90;;;;;;;;;;4900524;29;20036;-82
2023/07/20 08:35:37;;;;;;;6.40;2.85;;;;;;;;;;4940299;29;20487;-83
2023/07/20 08:38:04;;;;;;;6.82;2.88;;;;;;;;;;4917577;29;20051;-82
2023/07/20 08:40:31;;;;;;;4.95;2.70;;;;;;;;;;4931210;29;20027;-82
2023/07/20 08:42:57;;;;;;;7.55;2.55;;;;;;;;;;4930211;29;20388;-82
2023/07/20 08:45:26;;;;;;;8.02;2.75;;;;;;;;;;4930817;29;20033;-82
2023/07/20 08:47:52;;;;;;;5.43;2.78;;;;;;;;;;4928362;29;20044;-82
2023/07/20 08:50:19;;;;;;;5.88;2.80;;;;;;;;;;4939621;29;20036;-82
2023/07/20 08:52:45;;;;;;;6.07;2.72;;;;;;;;;;4919438;29;20040;-82
2023/07/20 08:55:11;;;;;;;8.35;3.17;;;;;;;;;;4930386;29;20035;-82
2023/07/20 08:57:38;;;;;;;7.70;2.42;;;;;;;;;;4934796;29;20044;-82
2023/07/20 09:00:04;;;;;;;10.02;2.75;;;;;;;;;;4919691;29;20475;-82
2023/07/20 09:02:33;;;;;;;6.13;2.45;;;;;;;;;;4919918;29;20039;-82
2023/07/20 09:05:00;;;;;;;5.75;2.30;;;;;;;;;;4930091;29;20040;-82
2023/07/20 09:07:26;;;;;;;8.45;2.70;;;;;;;;;;4934178;29;20052;-82
2023/07/20 09:09:52;;;;;;;5.22;2.10;;;;;;;;;;4934624;29;20438;-82
2023/07/20 09:12:18;;;;;;;11.07;2.65;;;;;;;;;;4930838;29;20036;-82
2023/07/20 09:14:44;;;;;;;6.30;2.72;;;;;;;;;;4908152;29;20083;-82
2023/07/20 09:17:15;;;;;;;5.05;2.53;;;;;;;;;;4934826;29;20846;-83
2023/07/20 09:19:47;;;;;;;7.72;2.67;;;;;;;;;;4934563;29;20502;-83
2023/07/20 09:22:13;;;;;;;5.88;1.90;;;;;;;;;;4934901;29;20084;-82
2023/07/20 09:24:41;;;;;;;6.18;2.25;;;;;;;;;;4937224;29;20091;-83
2023/07/20 09:27:09;;;;;;;6.53;2.05;;;;;;;;;;4943061;29;20067;-82
2023/07/20 09:29:35;;;;;;;6.35;2.22;;;;;;;;;;4936406;29;20046;-82
2023/07/20 09:32:01;;;;;;;6.20;2.60;;;;;;;;;;4918787;29;20395;-80
2023/07/20 09:34:29;;;;;;;7.18;2.00;;;;;;;;;;4926885;29;20047;-82
2023/07/20 09:36:56;;;;;;;8.48;2.55;;;;;;;;;;4931476;29;20032;-82
2023/07/20 09:39:22;;;;;;;6.07;2.83;;;;;;;;;;4905015;29;20036;-82
2023/07/20 09:41:48;;;;;;;4.00;2.13;;;;;;;;;;4918701;29;20092;-82
2023/07/20 09:44:15;;;;;;;5.60;3.00;;;;;;;;;;4924347;29;20370;-82
2023/07/20 09:46:48;;;;;;;6.95;2.53;;;;;;;;;;4920046;29;20032;-81
2023/07/20 09:49:14;;;;;;;8.02;2.47;;;;;;;;;;4916946;29;20038;-82
2023/07/20 09:51:42;;;;;;;7.32;2.47;;;;;;;;;;4917071;29;20094;-82
2023/07/20 09:54:08;;;;;;;7.00;2.47;;;;;;;;;;4943202;29;20591;-82
2023/07/20 09:56:35;;;;;;;4.80;2.50;;;;;;;;;;4931997;29;20092;-82
2023/07/20 09:59:01;;;;;;;7.75;1.98;;;;;;;;;;4931237;29;20124;-82
2023/07/20 10:01:29;;;;;;;4.63;2.10;;;;;;;;;;4923890;29;20110;-82
2023/07/20 10:03:57;;;;;;;8.35;3.08;;;;;;;;;;4945186;29;20039;-82
2023/07/20 10:06:24;;;;;;;6.63;2.90;;;;;;;;;;4923635;29;20932;-82
2023/07/20 10:08:54;;;;;;;7.32;2.35;;;;;;;;;;4914602;29;20107;-82
2023/07/20 10:11:22;;;;;;;4.70;2.35;;;;;;;;;;4938813;29;20398;-81
2023/07/20 10:13:51;;;;;;;7.50;2.13;;;;;;;;;;4926207;29;20040;-82
2023/07/20 10:16:28;;;;;;;4.80;2.28;;;;;;;;;;4941654;29;20066;-82
2023/07/20 10:19:00;;;;;;;6.20;2.55;;;;;;;;;;4939056;29;20035;-82
2023/07/20 10:21:26;;;;;;;5.75;3.22;;;;;;;;;;4943353;29;20046;-82
2023/07/20 10:23:52;;;;;;;4.65;2.10;;;;;;;;;;4933287;29;20074;-82
2023/07/20 10:26:18;;;;;;;6.70;3.05;;;;;;;;;;4918295;29;21897;-82
2023/07/20 10:28:44;;;;;;;6.20;2.13;;;;;;;;;;4945268;29;20064;-82
2023/07/20 10:31:11;;;;;;;6.50;2.70;;;;;;;;;;4898197;29;20037;-82
2023/07/20 10:33:38;;;;;;;5.63;2.47;;;;;;;;;;4930669;29;20039;-83
2023/07/20 10:36:05;;;;;;;7.10;2.33;;;;;;;;;;4924426;29;20043;-82
2023/07/20 10:38:40;;;;;;;5.90;2.17;;;;;;;;;;4933786;29;20035;-82
2023/07/20 10:41:24;;;;;;;4.60;1.75;;;;;;;;;;4922052;29;20078;-83
2023/07/20 10:43:50;;;;;;;5.53;1.88;;;;;;;;;;4922523;29;20518;-83
2023/07/20 10:46:34;;;;;;;5.70;2.53;;;;;;;;;;4938870;29;20091;-82
2023/07/20 10:49:04;;;;;;;7.13;2.03;;;;;;;;;;4922895;29;20741;-82
2023/07/20 10:51:30;;;;;;;7.10;2.38;;;;;;;;;;4930649;29;20040;-82
2023/07/20 10:53:58;;;;;;;7.18;2.20;;;;;;;;;;4937979;28;20094;-82
2023/07/20 10:56:26;;;;;;;5.30;1.80;;;;;;;;;;4931156;29;20050;-82
2023/07/20 10:59:02;;;;;;;5.78;2.38;;;;;;;;;;4917471;29;20100;-83
2023/07/20 11:01:32;;;;;;;4.97;1.90;;;;;;;;;;4907084;29;20040;-82
2023/07/20 11:04:02;;;;;;;4.97;2.40;;;;;;;;;;4936512;29;20032;-82
2023/07/20 11:06:28;;;;;;;7.60;2.10;;;;;;;;;;4917903;29;20039;-82
2023/07/20 11:08:59;;;;;;;6.30;2.15;;;;;;;;;;4916513;29;20547;-83
2023/07/20 11:11:35;;;;;;;4.15;1.83;;;;;;;;;;4930512;29;20075;-81
2023/07/20 11:14:11;;;;;;;7.45;1.83;;;;;;;;;;4921622;29;20032;-83
2023/07/20 11:16:41;;;;;;;6.22;2.33;;;;;;;;;;4934405;29;20044;-82
2023/07/20 11:19:16;;;;;;;7.38;2.28;;;;;;;;;;4920406;29;20393;-83
2023/07/20 11:21:43;;;;;;;4.95;2.40;;;;;;;;;;4926400;29;20036;-82
2023/07/20 11:24:10;;;;;;;6.32;2.33;;;;;;;;;;4935606;29;20032;-82
2023/07/20 11:26:49;;;;;;;7.93;2.15;;;;;;;;;;4936384;29;20680;-82
2023/07/20 11:29:19;;;;;;;8.73;2.50;;;;;;;;;;4924355;29;20176;-82
2023/07/20 11:31:46;;;;;;;5.75;2.47;;;;;;;;;;4923242;29;20064;-83
2023/07/20 11:34:12;;;;;;;6.38;2.72;;;;;;;;;;4928943;29;20048;-82
2023/07/20 11:36:42;;;;;;;5.07;2.30;;;;;;;;;;4938200;29;20402;-82
2023/07/20 11:39:11;;;;;;;5.57;2.33;;;;;;;;;;4930308;29;20151;-83
2023/07/20 11:41:38;;;;;;;5.32;2.15;;;;;;;;;;4920260;29;20621;-82
2023/07/20 11:44:07;;;;;;;4.55;2.08;;;;;;;;;;4928295;29;20422;-83
2023/07/20 11:46:34;;;;;;;6.00;2.47;;;;;;;;;;4934346;29;20047;-83
2023/07/20 11:49:00;;;;;;;8.75;2.42;;;;;;;;;;4897537;29;20546;-83
2023/07/20 11:51:30;;;;;;;7.05;2.40;;;;;;;;;;4911416;29;20043;-82
2023/07/20 11:53:57;;;;;;;4.47;2.10;;;;;;;;;;4930261;29;20040;-82
2023/07/20 11:56:23;;;;;;;9.70;2.35;;;;;;;;;;4930574;29;20039;-83
2023/07/20 11:58:49;;;;;;;4.35;2.22;;;;;;;;;;4933453;29;20036;-82
2023/07/20 12:01:17;;;;;;;4.78;2.40;;;;;;;;;;4922684;29;20039;-82
2023/07/20 12:03:44;;;;;;;3.92;1.98;;;;;;;;;;4922983;29;20035;-83
2023/07/20 12:06:10;;;;;;;6.60;2.00;;;;;;;;;;4938017;28;20058;-83
2023/07/20 12:08:44;;;;;;;5.28;2.22;;;;;;;;;;4915609;29;20048;-82
2023/07/20 12:11:10;;;;;;;9.55;3.00;;;;;;;;;;4921716;29;20474;-82
2023/07/20 12:13:58;;;;;;;5.97;2.20;;;;;;;;;;4922038;29;20111;-82
2023/07/20 12:16:27;;;;;;;5.85;2.63;;;;;;;;;;4914087;29;20063;-82
2023/07/20 12:18:59;;;;;;;6.38;2.17;;;;;;;;;;4914239;29;20039;-82
2023/07/20 12:21:25;;;;;;;6.68;2.65;;;;;;;;;;4913539;29;20036;-83
2023/07/20 12:23:51;;;;;;;5.55;2.38;;;;;;;;;;4913703;29;20039;-83
2023/07/20 12:26:18;;;;;;;9.38;2.30;;;;;;;;;;4920774;29;20035;-82
2023/07/20 12:28:44;;;;;;;5.30;2.63;;;;;;;;;;4919543;29;20048;-82
2023/07/20 12:31:13;;;;;;;5.07;2.08;;;;;;;;;;4941006;29;20031;-82
2023/07/20 12:33:39;;;;;;;8.27;2.85;;;;;;;;;;4905547;29;20055;-82
2023/07/20 12:36:06;;;;;;;5.25;2.25;;;;;;;;;;4924350;29;20036;-82
2023/07/20 12:38:32;;;;;;;4.57;2.20;;;;;;;;;;4928281;29;20696;-82
2023/07/20 12:40:59;;;;;;;5.20;2.60;;;;;;;;;;4900307;29;20028;-82
2023/07/20 12:43:25;;;;;;;7.85;2.42;;;;;;;;;;4928819;29;20071;-83
2023/07/20 12:45:51;;;;;;;5.25;2.08;;;;;;;;;;4927631;29;20054;-83
2023/07/20 12:48:17;;;;;;;6.68;2.15;;;;;;;;;;4898115;29;20132;-82
2023/07/20 12:50:47;;;;;;;5.68;1.80;;;;;;;;;;4939662;29;20067;-83
2023/07/20 12:53:13;;;;;;;6.20;2.03;;;;;;;;;;4923464;29;20046;-83
2023/07/20 12:55:39;;;;;;;6.00;2.55;;;;;;;;;;4917220;29;20039;-82
2023/07/20 12:58:06;;;;;;;7.70;2.22;;;;;;;;;;4916683;29;20348;-82
2023/07/20 13:00:32;;;;;;;5.10;2.22;;;;;;;;;;4930403;29;20819;-82
2023/07/20 13:02:58;;;;;;;5.95;2.17;;;;;;;;;;4930418;29;20084;-82
2023/07/20 13:05:24;;;;;;;7.47;2.40;;;;;;;;;;4924623;29;20459;-82
2023/07/20 13:07:50;;;;;;;5.05;2.10;;;;;;;;;;4922521;29;20063;-82
2023/07/20 13:10:16;;;;;;;7.13;1.77;;;;;;;;;;4922824;29;20494;-82
2023/07/20 13:12:42;;;;;;;4.85;1.77;;;;;;;;;;4923187;29;20395;-82
2023/07/20 13:15:11;;;;;;;5.55;2.30;;;;;;;;;;4928154;29;20032;-82
2023/07/20 13:17:38;;;;;;;4.40;1.63;;;;;;;;;;4940534;29;20114;-82
2023/07/20 13:20:06;;;;;;;5.28;1.70;;;;;;;;;;4925911;29;20024;-83
2023/07/20 13:22:34;;;;;;;8.85;2.10;;;;;;;;;;4927880;29;20040;-83
2023/07/20 13:25:01;;;;;;;9.07;2.00;;;;;;;;;;4913296;29;20038;-83
2023/07/20 13:27:27;;;;;;;7.80;2.22;;;;;;;;;;4937740;29;20839;-82
2023/07/20 13:29:53;;;;;;;4.65;2.10;;;;;;;;;;4923143;29;20051;-83
2023/07/20 13:32:19;;;;;;;3.90;1.88;;;;;;;;;;4928705;29;20114;-83
2023/07/20 13:34:46;;;;;;;5.15;2.30;;;;;;;;;;4922905;29;20122;-82
2023/07/20 13:37:12;;;;;;;5.40;2.20;;;;;;;;;;4915542;29;20107;-83
2023/07/20 13:39:38;;;;;;;6.28;2.33;;;;;;;;;;4923388;29;20039;-83
2023/07/20 13:42:05;;;;;;;7.30;2.47;;;;;;;;;;4918348;29;20054;-80
2023/07/20 13:44:33;;;;;;;5.97;2.60;;;;;;;;;;4938357;29;20062;-81
2023/07/20 13:47:00;;;;;;;5.80;2.13;;;;;;;;;;4930474;29;20125;-81
2023/07/20 13:49:28;;;;;;;8.82;2.25;;;;;;;;;;4934889;29;20067;-82
2023/07/20 13:51:54;;;;;;;6.45;1.90;;;;;;;;;;4915534;29;20050;-82
2023/07/20 13:54:20;;;;;;;4.32;1.95;;;;;;;;;;4931443;29;20050;-83
2023/07/20 13:56:46;;;;;;;8.68;2.20;;;;;;;;;;4916271;29;20036;-82
2023/07/20 13:59:12;;;;;;;3.45;1.63;;;;;;;;;;4908057;29;20044;-82
2023/07/20 14:01:39;;;;;;;3.63;1.70;;;;;;;;;;4931423;29;20067;-83
2023/07/20 14:04:05;;;;;;;6.47;2.35;;;;;;;;;;4935789;29;20134;-82
2023/07/20 14:06:32;;;;;;;6.00;2.10;;;;;;;;;;4925725;29;20063;-83
2023/07/20 14:08:58;;;;;;;4.53;2.08;;;;;;;;;;4940261;28;20055;-83
2023/07/20 14:11:24;;;;;;;8.85;2.00;;;;;;;;;;4928693;29;20035;-82
2023/07/20 14:13:51;;;;;;;7.18;2.25;;;;;;;;;;4937978;29;20043;-83
2023/07/20 14:16:17;;;;;;;6.40;2.15;;;;;;;;;;4931247;28;20040;-82
2023/07/20 14:18:47;;;;;;;5.10;2.10;;;;;;;;;;4933649;29;20097;-81
2023/07/20 14:21:13;;;;;;;6.72;2.75;;;;;;;;;;4922995;29;20026;-82
2023/07/20 14:23:39;;;;;;;4.07;2.17;;;;;;;;;;4936417;29;20036;-82
2023/07/20 14:26:08;;;;;;;6.22;1.80;;;;;;;;;;4925731;29;20035;-82
2023/07/20 14:28:35;;;;;;;7.75;2.47;;;;;;;;;;4917815;29;20083;-82
2023/07/20 14:31:01;;;;;;;4.90;2.13;;;;;;;;;;4930488;29;20080;-81
2023/07/20 14:33:27;;;;;;;5.50;2.65;;;;;;;;;;4949663;29;20043;-80
2023/07/20 14:35:53;;;;;;;4.97;2.13;;;;;;;;;;4931727;29;20056;-82
2023/07/20 14:38:19;;;;;;;6.30;2.15;;;;;;;;;;4918287;29;20058;-82
2023/07/20 14:40:45;;;;;;;5.85;2.08;;;;;;;;;;4934435;29;20126;-80
2023/07/20 14:43:13;;;;;;;3.95;2.30;;;;;;;;;;4915696;29;20466;-82